sensor_id;sensor_type;location;lat;lon;timestamp;temperature;humidity
20288;DHT22;10303;51.960;8.372;2024-02-23T00:01:17;10.30;99.90
20288;DHT22;10303;51.960;8.372;2024-02-23T00:03:43;10.40;99.90
20288;DHT22;10303;51.960;8.372;2024-02-23T00:06:09;10.50;99.90
20288;DHT22;10303;51.960;8.372;2024-02-23T00:08:35;10.40;99.90
20288;DHT22;10303;51.960;8.372;2024-02-23T00:11:01;10.30;99.90
20288;DHT22;10303;51.960;8.372;2024-02-23T00:13:27;10.10;99.90
20288;DHT22;10303;51.960;8.372;2024-02-23T00:15:53;10.40;99.90
20288;DHT22;10303;51.960;8.372;2024-02-23T00:18:19;10.10;99.90
20288;DHT22;10303;51.960;8.372;2024-02-23T00:20:46;9.80;99.90
20288;DHT22;10303;51.960;8.372;2024-02-23T00:23:12;9.60;99.90
20288;DHT22;10303;51.960;8.372;2024-02-23T00:25:38;9.50;99.90
20288;DHT22;10303;51.960;8.372;2024-02-23T00:28:05;9.10;99.90
20288;DHT22;10303;51.960;8.372;2024-02-23T00:30:31;8.80;99.90
20288;DHT22;10303;51.960;8.372;2024-02-23T00:32:57;9.00;99.90
20288;DHT22;10303;51.960;8.372;2024-02-23T00:35:23;8.50;99.90
20288;DHT22;10303;51.960;8.372;2024-02-23T00:37:49;8.60;99.90
20288;DHT22;10303;51.960;8.372;2024-02-23T00:40:15;8.30;99.90
20288;DHT22;10303;51.960;8.372;2024-02-23T00:42:41;8.10;99.90
20288;DHT22;10303;51.960;8.372;2024-02-23T00:45:07;8.40;99.90
20288;DHT22;10303;51.960;8.372;2024-02-23T00:47:34;8.00;99.90
20288;DHT22;10303;51.960;8.372;2024-02-23T00:50:01;7.90;99.90
20288;DHT22;10303;51.960;8.372;2024-02-23T00:52:27;7.20;99.90
20288;DHT22;10303;51.960;8.372;2024-02-23T00:54:53;7.40;99.90
20288;DHT22;10303;51.960;8.372;2024-02-23T00:57:19;7.10;99.90
20288;DHT22;10303;51.960;8.372;2024-02-23T00:59:52;7.10;99.90
20288;DHT22;10303;51.960;8.372;2024-02-23T01:02:18;7.00;99.90
20288;DHT22;10303;51.960;8.372;2024-02-23T01:04:44;6.90;99.90
20288;DHT22;10303;51.960;8.372;2024-02-23T01:07:10;6.80;99.90
20288;DHT22;10303;51.960;8.372;2024-02-23T01:09:36;6.80;99.90
20288;DHT22;10303;51.960;8.372;2024-02-23T01:12:02;6.90;99.90
20288;DHT22;10303;51.960;8.372;2024-02-23T01:14:28;6.80;99.90
20288;DHT22;10303;51.960;8.372;2024-02-23T01:16:54;7.00;99.90
20288;DHT22;10303;51.960;8.372;2024-02-23T01:19:20;6.90;99.90
20288;DHT22;10303;51.960;8.372;2024-02-23T01:21:46;6.90;99.90
20288;DHT22;10303;51.960;8.372;2024-02-23T01:24:12;6.90;99.90
20288;DHT22;10303;51.960;8.372;2024-02-23T01:26:38;6.80;99.90
20288;DHT22;10303;51.960;8.372;2024-02-23T01:29:04;6.70;99.90
20288;DHT22;10303;51.960;8.372;2024-02-23T01:31:30;6.60;99.90
20288;DHT22;10303;51.960;8.372;2024-02-23T01:33:56;6.70;99.90
20288;DHT22;10303;51.960;8.372;2024-02-23T01:36:22;6.50;99.90
20288;DHT22;10303;51.960;8.372;2024-02-23T01:38:48;6.60;99.90
20288;DHT22;10303;51.960;8.372;2024-02-23T01:41:14;6.70;99.90
20288;DHT22;10303;51.960;8.372;2024-02-23T01:43:40;6.60;99.90
20288;DHT22;10303;51.960;8.372;2024-02-23T01:46:06;6.50;99.90
20288;DHT22;10303;51.960;8.372;2024-02-23T01:48:33;6.50;99.90
20288;DHT22;10303;51.960;8.372;2024-02-23T01:50:59;6.70;99.90
20288;DHT22;10303;51.960;8.372;2024-02-23T01:53:26;6.70;99.90
20288;DHT22;10303;51.960;8.372;2024-02-23T01:55:53;7.00;99.90
20288;DHT22;10303;51.960;8.372;2024-02-23T01:58:20;6.90;99.90
20288;DHT22;10303;51.960;8.372;2024-02-23T02:00:47;6.70;99.90
20288;DHT22;10303;51.960;8.372;2024-02-23T02:03:13;7.00;99.90
20288;DHT22;10303;51.960;8.372;2024-02-23T02:05:39;6.90;99.90
20288;DHT22;10303;51.960;8.372;2024-02-23T02:08:05;6.90;99.90
20288;DHT22;10303;51.960;8.372;2024-02-23T02:10:32;7.10;99.90
20288;DHT22;10303;51.960;8.372;2024-02-23T02:13:05;6.80;99.90
20288;DHT22;10303;51.960;8.372;2024-02-23T02:15:31;7.30;99.90
20288;DHT22;10303;51.960;8.372;2024-02-23T02:17:57;7.30;99.90
20288;DHT22;10303;51.960;8.372;2024-02-23T02:20:28;7.40;99.90
20288;DHT22;10303;51.960;8.372;2024-02-23T02:22:58;7.40;99.90
20288;DHT22;10303;51.960;8.372;2024-02-23T02:25:24;7.50;99.90
20288;DHT22;10303;51.960;8.372;2024-02-23T02:27:50;7.80;99.90
20288;DHT22;10303;51.960;8.372;2024-02-23T02:30:17;7.70;99.90
20288;DHT22;10303;51.960;8.372;2024-02-23T02:32:43;7.90;99.90
20288;DHT22;10303;51.960;8.372;2024-02-23T02:35:11;8.00;99.90
20288;DHT22;10303;51.960;8.372;2024-02-23T02:37:38;8.00;99.90
20288;DHT22;10303;51.960;8.372;2024-02-23T02:40:05;8.10;99.90
20288;DHT22;10303;51.960;8.372;2024-02-23T02:42:32;7.80;99.90
20288;DHT22;10303;51.960;8.372;2024-02-23T02:44:58;7.90;99.90
20288;DHT22;10303;51.960;8.372;2024-02-23T02:47:24;7.80;99.90
20288;DHT22;10303;51.960;8.372;2024-02-23T02:49:50;7.70;99.90
20288;DHT22;10303;51.960;8.372;2024-02-23T02:52:16;7.80;99.90
20288;DHT22;10303;51.960;8.372;2024-02-23T02:54:42;7.70;99.90
20288;DHT22;10303;51.960;8.372;2024-02-23T02:57:08;7.80;99.90
20288;DHT22;10303;51.960;8.372;2024-02-23T02:59:35;8.00;99.90
20288;DHT22;10303;51.960;8.372;2024-02-23T03:02:01;7.90;99.90
20288;DHT22;10303;51.960;8.372;2024-02-23T03:04:27;7.90;99.90
20288;DHT22;10303;51.960;8.372;2024-02-23T03:06:53;7.90;99.90
20288;DHT22;10303;51.960;8.372;2024-02-23T03:09:19;7.90;99.90
20288;DHT22;10303;51.960;8.372;2024-02-23T03:11:44;8.00;99.90
20288;DHT22;10303;51.960;8.372;2024-02-23T03:14:10;8.20;99.90
20288;DHT22;10303;51.960;8.372;2024-02-23T03:16:36;8.20;99.90
20288;DHT22;10303;51.960;8.372;2024-02-23T03:19:03;8.20;99.90
20288;DHT22;10303;51.960;8.372;2024-02-23T03:21:30;8.10;99.90
20288;DHT22;10303;51.960;8.372;2024-02-23T03:23:56;8.10;99.90
20288;DHT22;10303;51.960;8.372;2024-02-23T03:26:22;8.30;99.90
20288;DHT22;10303;51.960;8.372;2024-02-23T03:28:48;8.20;99.90
20288;DHT22;10303;51.960;8.372;2024-02-23T03:31:14;8.10;99.90
20288;DHT22;10303;51.960;8.372;2024-02-23T03:33:40;8.30;99.90
20288;DHT22;10303;51.960;8.372;2024-02-23T03:36:06;8.20;99.90
20288;DHT22;10303;51.960;8.372;2024-02-23T03:38:32;8.40;99.90
20288;DHT22;10303;51.960;8.372;2024-02-23T03:40:59;8.50;99.90
20288;DHT22;10303;51.960;8.372;2024-02-23T03:43:26;8.50;99.90
20288;DHT22;10303;51.960;8.372;2024-02-23T03:45:52;8.50;99.90
20288;DHT22;10303;51.960;8.372;2024-02-23T03:48:18;8.50;99.90
20288;DHT22;10303;51.960;8.372;2024-02-23T03:50:45;8.40;99.90
20288;DHT22;10303;51.960;8.372;2024-02-23T03:53:11;8.40;99.90
20288;DHT22;10303;51.960;8.372;2024-02-23T03:55:37;8.30;99.90
20288;DHT22;10303;51.960;8.372;2024-02-23T03:58:03;8.30;99.90
20288;DHT22;10303;51.960;8.372;2024-02-23T04:00:29;8.40;99.90
20288;DHT22;10303;51.960;8.372;2024-02-23T04:02:55;8.30;99.90
20288;DHT22;10303;51.960;8.372;2024-02-23T04:05:20;8.20;99.90
20288;DHT22;10303;51.960;8.372;2024-02-23T04:07:46;8.50;99.90
20288;DHT22;10303;51.960;8.372;2024-02-23T04:10:13;8.40;99.90
20288;DHT22;10303;51.960;8.372;2024-02-23T04:12:46;8.60;99.90
20288;DHT22;10303;51.960;8.372;2024-02-23T04:15:12;8.30;99.90
20288;DHT22;10303;51.960;8.372;2024-02-23T04:17:39;8.40;99.90
20288;DHT22;10303;51.960;8.372;2024-02-23T04:20:08;8.10;99.90
20288;DHT22;10303;51.960;8.372;2024-02-23T04:22:37;8.20;99.90
20288;DHT22;10303;51.960;8.372;2024-02-23T04:25:04;8.40;99.90
20288;DHT22;10303;51.960;8.372;2024-02-23T04:27:30;8.30;99.90
20288;DHT22;10303;51.960;8.372;2024-02-23T04:29:56;8.50;99.90
20288;DHT22;10303;51.960;8.372;2024-02-23T04:32:22;8.50;99.90
20288;DHT22;10303;51.960;8.372;2024-02-23T04:34:49;8.50;99.90
20288;DHT22;10303;51.960;8.372;2024-02-23T04:37:15;8.50;99.90
20288;DHT22;10303;51.960;8.372;2024-02-23T04:39:43;8.40;99.90
20288;DHT22;10303;51.960;8.372;2024-02-23T04:42:09;8.40;99.90
20288;DHT22;10303;51.960;8.372;2024-02-23T04:44:36;8.50;99.90
20288;DHT22;10303;51.960;8.372;2024-02-23T04:47:02;8.70;99.90
20288;DHT22;10303;51.960;8.372;2024-02-23T04:49:28;8.60;99.90
20288;DHT22;10303;51.960;8.372;2024-02-23T04:51:54;8.70;99.90
20288;DHT22;10303;51.960;8.372;2024-02-23T04:54:20;8.60;99.90
20288;DHT22;10303;51.960;8.372;2024-02-23T04:56:47;8.90;99.90
20288;DHT22;10303;51.960;8.372;2024-02-23T04:59:13;8.70;99.90
20288;DHT22;10303;51.960;8.372;2024-02-23T05:01:39;8.90;99.90
20288;DHT22;10303;51.960;8.372;2024-02-23T05:04:05;9.00;99.90
20288;DHT22;10303;51.960;8.372;2024-02-23T05:06:31;8.90;99.90
20288;DHT22;10303;51.960;8.372;2024-02-23T05:08:57;8.70;99.90
20288;DHT22;10303;51.960;8.372;2024-02-23T05:11:23;8.80;99.90
20288;DHT22;10303;51.960;8.372;2024-02-23T05:13:49;8.80;99.90
20288;DHT22;10303;51.960;8.372;2024-02-23T05:16:15;8.70;99.90
20288;DHT22;10303;51.960;8.372;2024-02-23T05:18:41;8.70;99.90
20288;DHT22;10303;51.960;8.372;2024-02-23T05:21:07;8.90;99.90
20288;DHT22;10303;51.960;8.372;2024-02-23T05:23:33;8.80;99.90
20288;DHT22;10303;51.960;8.372;2024-02-23T05:26:00;8.70;99.90
20288;DHT22;10303;51.960;8.372;2024-02-23T05:28:26;8.80;99.90
20288;DHT22;10303;51.960;8.372;2024-02-23T05:30:54;8.90;99.90
20288;DHT22;10303;51.960;8.372;2024-02-23T05:33:20;9.00;99.90
20288;DHT22;10303;51.960;8.372;2024-02-23T05:35:47;9.00;99.90
20288;DHT22;10303;51.960;8.372;2024-02-23T05:38:16;8.90;99.90
20288;DHT22;10303;51.960;8.372;2024-02-23T05:40:43;9.00;99.90
20288;DHT22;10303;51.960;8.372;2024-02-23T05:43:09;9.10;99.90
20288;DHT22;10303;51.960;8.372;2024-02-23T05:45:34;9.20;99.90
20288;DHT22;10303;51.960;8.372;2024-02-23T05:48:00;9.20;99.90
20288;DHT22;10303;51.960;8.372;2024-02-23T05:50:26;9.40;99.90
20288;DHT22;10303;51.960;8.372;2024-02-23T05:52:52;9.30;99.90
20288;DHT22;10303;51.960;8.372;2024-02-23T05:55:21;9.40;99.90
20288;DHT22;10303;51.960;8.372;2024-02-23T05:57:47;9.30;99.90
20288;DHT22;10303;51.960;8.372;2024-02-23T06:00:13;9.30;99.90
20288;DHT22;10303;51.960;8.372;2024-02-23T06:02:41;9.30;99.90
20288;DHT22;10303;51.960;8.372;2024-02-23T06:05:07;9.50;99.90
20288;DHT22;10303;51.960;8.372;2024-02-23T06:07:34;9.50;99.90
20288;DHT22;10303;51.960;8.372;2024-02-23T06:10:00;9.60;99.90
20288;DHT22;10303;51.960;8.372;2024-02-23T06:12:26;9.70;99.90
20288;DHT22;10303;51.960;8.372;2024-02-23T06:14:52;9.60;99.90
20288;DHT22;10303;51.960;8.372;2024-02-23T06:17:20;9.60;99.90
20288;DHT22;10303;51.960;8.372;2024-02-23T06:19:46;9.60;99.90
20288;DHT22;10303;51.960;8.372;2024-02-23T06:22:12;9.60;99.90
20288;DHT22;10303;51.960;8.372;2024-02-23T06:24:39;9.60;99.90
20288;DHT22;10303;51.960;8.372;2024-02-23T06:27:04;9.50;99.90
20288;DHT22;10303;51.960;8.372;2024-02-23T06:29:30;9.60;99.90
20288;DHT22;10303;51.960;8.372;2024-02-23T06:31:56;9.60;99.90
20288;DHT22;10303;51.960;8.372;2024-02-23T06:34:22;9.60;99.90
20288;DHT22;10303;51.960;8.372;2024-02-23T06:36:49;9.50;99.90
20288;DHT22;10303;51.960;8.372;2024-02-23T06:39:15;9.60;99.90
20288;DHT22;10303;51.960;8.372;2024-02-23T06:41:43;9.50;99.90
20288;DHT22;10303;51.960;8.372;2024-02-23T06:44:09;9.70;99.90
20288;DHT22;10303;51.960;8.372;2024-02-23T06:46:35;9.60;99.90
20288;DHT22;10303;51.960;8.372;2024-02-23T06:49:01;9.60;99.90
20288;DHT22;10303;51.960;8.372;2024-02-23T06:51:27;9.70;99.90
20288;DHT22;10303;51.960;8.372;2024-02-23T06:53:53;9.70;99.90
20288;DHT22;10303;51.960;8.372;2024-02-23T06:56:19;9.60;99.90
20288;DHT22;10303;51.960;8.372;2024-02-23T06:58:45;9.70;99.90
20288;DHT22;10303;51.960;8.372;2024-02-23T07:01:11;9.60;99.90
20288;DHT22;10303;51.960;8.372;2024-02-23T07:03:38;9.60;99.90
20288;DHT22;10303;51.960;8.372;2024-02-23T07:06:05;9.60;99.90
20288;DHT22;10303;51.960;8.372;2024-02-23T07:08:31;9.60;99.90
20288;DHT22;10303;51.960;8.372;2024-02-23T07:10:57;9.60;99.90
20288;DHT22;10303;51.960;8.372;2024-02-23T07:13:23;9.60;99.90
20288;DHT22;10303;51.960;8.372;2024-02-23T07:15:49;9.60;99.90
20288;DHT22;10303;51.960;8.372;2024-02-23T07:18:15;9.70;99.90
20288;DHT22;10303;51.960;8.372;2024-02-23T07:20:41;9.60;99.90
20288;DHT22;10303;51.960;8.372;2024-02-23T07:23:07;9.60;99.90
20288;DHT22;10303;51.960;8.372;2024-02-23T07:25:34;9.60;99.90
20288;DHT22;10303;51.960;8.372;2024-02-23T07:28:00;9.70;99.90
20288;DHT22;10303;51.960;8.372;2024-02-23T07:30:26;9.50;99.90
20288;DHT22;10303;51.960;8.372;2024-02-23T07:32:52;9.50;99.90
20288;DHT22;10303;51.960;8.372;2024-02-23T07:35:18;9.60;99.90
20288;DHT22;10303;51.960;8.372;2024-02-23T07:37:44;9.60;99.90
20288;DHT22;10303;51.960;8.372;2024-02-23T07:40:10;9.60;99.90
20288;DHT22;10303;51.960;8.372;2024-02-23T07:42:36;9.70;99.90
20288;DHT22;10303;51.960;8.372;2024-02-23T07:45:03;9.80;99.90
20288;DHT22;10303;51.960;8.372;2024-02-23T07:47:31;9.60;99.90
20288;DHT22;10303;51.960;8.372;2024-02-23T07:49:58;9.70;99.90
20288;DHT22;10303;51.960;8.372;2024-02-23T07:52:24;9.70;99.90
20288;DHT22;10303;51.960;8.372;2024-02-23T07:54:51;9.70;99.90
20288;DHT22;10303;51.960;8.372;2024-02-23T07:57:21;9.70;99.90
20288;DHT22;10303;51.960;8.372;2024-02-23T07:59:47;9.60;99.90
20288;DHT22;10303;51.960;8.372;2024-02-23T08:02:14;9.70;99.90
20288;DHT22;10303;51.960;8.372;2024-02-23T08:04:41;9.70;99.90
20288;DHT22;10303;51.960;8.372;2024-02-23T08:07:08;9.50;99.90
20288;DHT22;10303;51.960;8.372;2024-02-23T08:09:34;9.60;99.90
20288;DHT22;10303;51.960;8.372;2024-02-23T08:12:00;9.60;99.90
20288;DHT22;10303;51.960;8.372;2024-02-23T08:14:25;9.60;99.90
20288;DHT22;10303;51.960;8.372;2024-02-23T08:16:51;9.60;99.90
20288;DHT22;10303;51.960;8.372;2024-02-23T08:19:17;9.60;99.90
20288;DHT22;10303;51.960;8.372;2024-02-23T08:21:43;9.60;99.90
20288;DHT22;10303;51.960;8.372;2024-02-23T08:24:09;9.70;99.90
20288;DHT22;10303;51.960;8.372;2024-02-23T08:26:35;9.70;99.90
20288;DHT22;10303;51.960;8.372;2024-02-23T08:29:03;9.80;99.90
20288;DHT22;10303;51.960;8.372;2024-02-23T08:31:30;9.70;99.90
20288;DHT22;10303;51.960;8.372;2024-02-23T08:33:56;9.80;99.90
20288;DHT22;10303;51.960;8.372;2024-02-23T08:36:22;9.80;99.90
20288;DHT22;10303;51.960;8.372;2024-02-23T08:38:48;9.80;99.90
20288;DHT22;10303;51.960;8.372;2024-02-23T08:41:14;9.80;99.90
20288;DHT22;10303;51.960;8.372;2024-02-23T08:43:40;9.90;99.90
20288;DHT22;10303;51.960;8.372;2024-02-23T08:46:06;9.90;99.90
20288;DHT22;10303;51.960;8.372;2024-02-23T08:48:32;9.90;99.90
20288;DHT22;10303;51.960;8.372;2024-02-23T08:50:58;9.90;99.90
20288;DHT22;10303;51.960;8.372;2024-02-23T08:53:24;9.90;99.90
20288;DHT22;10303;51.960;8.372;2024-02-23T08:55:50;10.10;99.90
20288;DHT22;10303;51.960;8.372;2024-02-23T08:58:16;10.10;99.90
20288;DHT22;10303;51.960;8.372;2024-02-23T09:00:42;10.10;99.90
20288;DHT22;10303;51.960;8.372;2024-02-23T09:03:07;10.10;99.90
20288;DHT22;10303;51.960;8.372;2024-02-23T09:05:33;10.00;99.90
20288;DHT22;10303;51.960;8.372;2024-02-23T09:07:59;10.20;99.90
20288;DHT22;10303;51.960;8.372;2024-02-23T09:10:25;10.00;99.90
20288;DHT22;10303;51.960;8.372;2024-02-23T09:12:51;10.20;99.90
20288;DHT22;10303;51.960;8.372;2024-02-23T09:15:17;10.20;99.90
20288;DHT22;10303;51.960;8.372;2024-02-23T09:17:42;10.30;99.90
20288;DHT22;10303;51.960;8.372;2024-02-23T09:20:09;10.40;99.90
20288;DHT22;10303;51.960;8.372;2024-02-23T09:22:35;10.20;99.90
20288;DHT22;10303;51.960;8.372;2024-02-23T09:25:02;10.30;99.90
20288;DHT22;10303;51.960;8.372;2024-02-23T09:27:30;10.30;99.90
20288;DHT22;10303;51.960;8.372;2024-02-23T09:29:57;10.40;99.90
20288;DHT22;10303;51.960;8.372;2024-02-23T09:32:24;10.40;99.90
20288;DHT22;10303;51.960;8.372;2024-02-23T09:34:50;10.40;99.90
20288;DHT22;10303;51.960;8.372;2024-02-23T09:37:15;10.30;99.90
20288;DHT22;10303;51.960;8.372;2024-02-23T09:39:41;10.40;99.90
20288;DHT22;10303;51.960;8.372;2024-02-23T09:42:09;10.40;99.90
20288;DHT22;10303;51.960;8.372;2024-02-23T09:44:37;10.40;99.90
20288;DHT22;10303;51.960;8.372;2024-02-23T09:47:03;10.50;99.90
20288;DHT22;10303;51.960;8.372;2024-02-23T09:49:38;10.40;99.90
20288;DHT22;10303;51.960;8.372;2024-02-23T09:52:09;10.40;99.90
20288;DHT22;10303;51.960;8.372;2024-02-23T09:54:38;10.40;99.90
20288;DHT22;10303;51.960;8.372;2024-02-23T09:57:07;10.40;99.90
20288;DHT22;10303;51.960;8.372;2024-02-23T09:59:34;10.30;99.90
20288;DHT22;10303;51.960;8.372;2024-02-23T10:02:02;10.30;99.90
20288;DHT22;10303;51.960;8.372;2024-02-23T10:04:30;10.30;99.90
20288;DHT22;10303;51.960;8.372;2024-02-23T10:06:56;10.40;99.90
20288;DHT22;10303;51.960;8.372;2024-02-23T10:09:22;10.40;99.90
20288;DHT22;10303;51.960;8.372;2024-02-23T10:11:54;10.50;99.90
20288;DHT22;10303;51.960;8.372;2024-02-23T10:14:21;10.50;99.90
20288;DHT22;10303;51.960;8.372;2024-02-23T10:16:47;10.60;99.90
20288;DHT22;10303;51.960;8.372;2024-02-23T10:19:14;10.60;99.90
20288;DHT22;10303;51.960;8.372;2024-02-23T10:21:40;10.70;99.90
20288;DHT22;10303;51.960;8.372;2024-02-23T10:24:06;10.70;99.90
20288;DHT22;10303;51.960;8.372;2024-02-23T10:26:32;10.70;99.90
20288;DHT22;10303;51.960;8.372;2024-02-23T10:28:58;10.70;99.90
20288;DHT22;10303;51.960;8.372;2024-02-23T10:31:24;10.70;99.90
20288;DHT22;10303;51.960;8.372;2024-02-23T10:33:50;10.70;99.90
20288;DHT22;10303;51.960;8.372;2024-02-23T10:36:18;10.70;99.90
20288;DHT22;10303;51.960;8.372;2024-02-23T10:38:45;10.80;99.90
20288;DHT22;10303;51.960;8.372;2024-02-23T10:41:17;10.70;99.90
20288;DHT22;10303;51.960;8.372;2024-02-23T10:43:48;10.70;99.90
20288;DHT22;10303;51.960;8.372;2024-02-23T10:46:15;10.80;99.90
20288;DHT22;10303;51.960;8.372;2024-02-23T10:48:41;10.80;99.90
20288;DHT22;10303;51.960;8.372;2024-02-23T10:51:10;10.90;99.90
20288;DHT22;10303;51.960;8.372;2024-02-23T10:53:39;10.90;99.90
20288;DHT22;10303;51.960;8.372;2024-02-23T10:56:07;10.90;99.90
20288;DHT22;10303;51.960;8.372;2024-02-23T10:58:33;11.00;99.90
20288;DHT22;10303;51.960;8.372;2024-02-23T11:01:01;11.10;99.90
20288;DHT22;10303;51.960;8.372;2024-02-23T11:03:31;11.20;99.90
20288;DHT22;10303;51.960;8.372;2024-02-23T11:05:59;11.20;99.90
20288;DHT22;10303;51.960;8.372;2024-02-23T11:08:29;11.30;99.90
20288;DHT22;10303;51.960;8.372;2024-02-23T11:10:55;11.40;99.90
20288;DHT22;10303;51.960;8.372;2024-02-23T11:13:33;11.50;99.90
20288;DHT22;10303;51.960;8.372;2024-02-23T11:16:04;11.60;99.90
20288;DHT22;10303;51.960;8.372;2024-02-23T11:18:34;11.60;99.90
20288;DHT22;10303;51.960;8.372;2024-02-23T11:21:04;11.60;99.90
20288;DHT22;10303;51.960;8.372;2024-02-23T11:23:49;11.50;99.90
20288;DHT22;10303;51.960;8.372;2024-02-23T11:26:18;11.70;99.90
20288;DHT22;10303;51.960;8.372;2024-02-23T11:28:48;11.70;99.90
20288;DHT22;10303;51.960;8.372;2024-02-23T11:31:16;11.70;99.90
20288;DHT22;10303;51.960;8.372;2024-02-23T11:33:49;11.70;99.90
20288;DHT22;10303;51.960;8.372;2024-02-23T11:39:00;11.70;99.90
20288;DHT22;10303;51.960;8.372;2024-02-23T11:41:28;11.80;99.90
20288;DHT22;10303;51.960;8.372;2024-02-23T11:43:55;11.80;99.90
20288;DHT22;10303;51.960;8.372;2024-02-23T11:46:22;11.90;99.90
20288;DHT22;10303;51.960;8.372;2024-02-23T11:48:48;11.90;99.90
20288;DHT22;10303;51.960;8.372;2024-02-23T11:51:22;11.90;99.90
20288;DHT22;10303;51.960;8.372;2024-02-23T11:53:49;12.00;99.90
20288;DHT22;10303;51.960;8.372;2024-02-23T11:56:16;12.00;99.90
20288;DHT22;10303;51.960;8.372;2024-02-23T11:58:42;12.00;99.90
20288;DHT22;10303;51.960;8.372;2024-02-23T12:01:09;11.90;99.90
20288;DHT22;10303;51.960;8.372;2024-02-23T12:03:35;11.90;99.90
20288;DHT22;10303;51.960;8.372;2024-02-23T12:06:01;11.90;99.90
20288;DHT22;10303;51.960;8.372;2024-02-23T12:08:29;12.00;99.90
20288;DHT22;10303;51.960;8.372;2024-02-23T12:11:04;11.90;99.90
20288;DHT22;10303;51.960;8.372;2024-02-23T12:13:32;12.00;99.90
20288;DHT22;10303;51.960;8.372;2024-02-23T12:15:58;12.00;99.90
20288;DHT22;10303;51.960;8.372;2024-02-23T12:18:24;12.00;99.90
20288;DHT22;10303;51.960;8.372;2024-02-23T12:21:05;12.00;99.90
20288;DHT22;10303;51.960;8.372;2024-02-23T12:23:45;12.10;99.90
20288;DHT22;10303;51.960;8.372;2024-02-23T12:26:16;12.20;99.90
20288;DHT22;10303;51.960;8.372;2024-02-23T12:28:43;12.20;99.90
20288;DHT22;10303;51.960;8.372;2024-02-23T12:31:09;12.20;99.90
20288;DHT22;10303;51.960;8.372;2024-02-23T12:33:39;12.00;99.90
20288;DHT22;10303;51.960;8.372;2024-02-23T12:36:06;12.10;99.90
20288;DHT22;10303;51.960;8.372;2024-02-23T12:38:34;12.20;99.90
20288;DHT22;10303;51.960;8.372;2024-02-23T12:41:01;12.20;99.90
20288;DHT22;10303;51.960;8.372;2024-02-23T12:43:28;12.20;99.90
20288;DHT22;10303;51.960;8.372;2024-02-23T12:45:55;12.20;99.90
20288;DHT22;10303;51.960;8.372;2024-02-23T12:48:23;12.30;99.90
20288;DHT22;10303;51.960;8.372;2024-02-23T12:50:49;12.40;99.90
20288;DHT22;10303;51.960;8.372;2024-02-23T12:53:36;12.50;99.90
20288;DHT22;10303;51.960;8.372;2024-02-23T12:56:07;12.50;99.90
20288;DHT22;10303;51.960;8.372;2024-02-23T12:58:35;12.50;99.90
20288;DHT22;10303;51.960;8.372;2024-02-23T13:01:02;12.70;99.90
20288;DHT22;10303;51.960;8.372;2024-02-23T13:03:29;12.70;99.90
20288;DHT22;10303;51.960;8.372;2024-02-23T13:05:55;12.80;99.90
20288;DHT22;10303;51.960;8.372;2024-02-23T13:08:22;12.80;99.90
20288;DHT22;10303;51.960;8.372;2024-02-23T13:10:50;12.80;99.90
20288;DHT22;10303;51.960;8.372;2024-02-23T13:13:16;13.00;99.90
20288;DHT22;10303;51.960;8.372;2024-02-23T13:15:46;12.90;99.90
20288;DHT22;10303;51.960;8.372;2024-02-23T13:18:14;12.80;99.90
20288;DHT22;10303;51.960;8.372;2024-02-23T13:20:40;12.70;99.90
20288;DHT22;10303;51.960;8.372;2024-02-23T13:23:08;12.70;99.90
20288;DHT22;10303;51.960;8.372;2024-02-23T13:25:35;12.60;99.90
20288;DHT22;10303;51.960;8.372;2024-02-23T13:28:02;12.60;99.90
20288;DHT22;10303;51.960;8.372;2024-02-23T13:30:28;12.50;99.90
20288;DHT22;10303;51.960;8.372;2024-02-23T13:32:54;12.60;99.90
20288;DHT22;10303;51.960;8.372;2024-02-23T13:35:20;12.60;99.90
20288;DHT22;10303;51.960;8.372;2024-02-23T13:37:47;12.60;99.90
20288;DHT22;10303;51.960;8.372;2024-02-23T13:40:13;12.70;99.90
20288;DHT22;10303;51.960;8.372;2024-02-23T13:42:40;12.70;99.90
20288;DHT22;10303;51.960;8.372;2024-02-23T13:45:07;12.70;99.90
20288;DHT22;10303;51.960;8.372;2024-02-23T13:47:37;12.70;99.90
20288;DHT22;10303;51.960;8.372;2024-02-23T13:50:03;12.70;99.90
20288;DHT22;10303;51.960;8.372;2024-02-23T13:52:30;12.70;99.90
20288;DHT22;10303;51.960;8.372;2024-02-23T13:54:56;12.70;99.90
20288;DHT22;10303;51.960;8.372;2024-02-23T13:57:22;12.60;99.90
20288;DHT22;10303;51.960;8.372;2024-02-23T13:59:48;12.80;99.90
20288;DHT22;10303;51.960;8.372;2024-02-23T14:02:14;12.70;99.90
20288;DHT22;10303;51.960;8.372;2024-02-23T14:04:40;12.70;99.90
20288;DHT22;10303;51.960;8.372;2024-02-23T14:07:09;12.60;99.90
20288;DHT22;10303;51.960;8.372;2024-02-23T14:09:35;12.50;99.90
20288;DHT22;10303;51.960;8.372;2024-02-23T14:12:01;12.60;99.90
20288;DHT22;10303;51.960;8.372;2024-02-23T14:14:27;12.60;99.90
20288;DHT22;10303;51.960;8.372;2024-02-23T14:16:53;12.70;99.90
20288;DHT22;10303;51.960;8.372;2024-02-23T14:19:19;12.70;99.90
20288;DHT22;10303;51.960;8.372;2024-02-23T14:21:46;12.70;99.90
20288;DHT22;10303;51.960;8.372;2024-02-23T14:24:14;12.70;99.90
20288;DHT22;10303;51.960;8.372;2024-02-23T14:26:40;12.70;99.90
20288;DHT22;10303;51.960;8.372;2024-02-23T14:29:05;12.80;99.90
20288;DHT22;10303;51.960;8.372;2024-02-23T14:31:31;12.70;99.90
20288;DHT22;10303;51.960;8.372;2024-02-23T14:33:57;12.70;99.90
20288;DHT22;10303;51.960;8.372;2024-02-23T14:36:23;12.70;99.90
20288;DHT22;10303;51.960;8.372;2024-02-23T14:38:50;12.70;99.90
20288;DHT22;10303;51.960;8.372;2024-02-23T14:41:15;12.80;99.90
20288;DHT22;10303;51.960;8.372;2024-02-23T14:43:41;12.70;99.90
20288;DHT22;10303;51.960;8.372;2024-02-23T14:46:07;12.70;99.90
20288;DHT22;10303;51.960;8.372;2024-02-23T14:48:35;12.70;99.90
20288;DHT22;10303;51.960;8.372;2024-02-23T14:51:01;12.80;99.90
20288;DHT22;10303;51.960;8.372;2024-02-23T14:53:29;12.90;99.90
20288;DHT22;10303;51.960;8.372;2024-02-23T14:55:55;12.70;99.90
20288;DHT22;10303;51.960;8.372;2024-02-23T14:58:21;12.70;99.90
20288;DHT22;10303;51.960;8.372;2024-02-23T15:00:47;12.70;99.90
20288;DHT22;10303;51.960;8.372;2024-02-23T15:03:13;12.60;99.90
20288;DHT22;10303;51.960;8.372;2024-02-23T15:05:40;12.60;99.90
20288;DHT22;10303;51.960;8.372;2024-02-23T15:08:07;12.40;99.90
20288;DHT22;10303;51.960;8.372;2024-02-23T15:10:33;12.40;99.90
20288;DHT22;10303;51.960;8.372;2024-02-23T15:12:59;12.40;99.90
20288;DHT22;10303;51.960;8.372;2024-02-23T15:15:25;12.30;99.90
20288;DHT22;10303;51.960;8.372;2024-02-23T15:17:51;12.40;99.90
20288;DHT22;10303;51.960;8.372;2024-02-23T15:20:18;12.30;99.90
20288;DHT22;10303;51.960;8.372;2024-02-23T15:22:45;12.30;99.90
20288;DHT22;10303;51.960;8.372;2024-02-23T15:25:12;12.30;99.90
20288;DHT22;10303;51.960;8.372;2024-02-23T15:27:38;12.30;99.90
20288;DHT22;10303;51.960;8.372;2024-02-23T15:30:05;12.30;99.90
20288;DHT22;10303;51.960;8.372;2024-02-23T15:32:36;12.30;99.90
20288;DHT22;10303;51.960;8.372;2024-02-23T15:35:03;12.40;99.90
20288;DHT22;10303;51.960;8.372;2024-02-23T15:37:29;12.30;99.90
20288;DHT22;10303;51.960;8.372;2024-02-23T15:39:55;12.20;99.90